Time;durP1;ratioP1;P1;durP2;ratioP2;P2;SDS_P1;SDS_P2;PMS_P1;PMS_P2;Temp;Humidity;BMP_temperature;BMP_pressure;BME280_temperature;BME280_humidity;BME280_pressure;Samples;Min_cycle;Max_cycle;Signal;HPM_P1;HPM_P2
2021/05/18 00:01:19;;;;;;;2.23;0.90;;;;;;;;;;5009825;28;20427;-63
2021/05/18 00:03:45;;;;;;;1.40;0.70;;;;;;;;;;5015046;28;20404;-63
2021/05/18 00:06:11;;;;;;;2.17;0.70;;;;;;;;;;5013467;28;20504;-63
2021/05/18 00:11:43;;;;;;;1.60;0.90;;;;;;;;;;5014103;28;20424;-63
2021/05/18 00:14:08;;;;;;;1.37;0.70;;;;;;;;;;5013822;28;20485;-63
2021/05/18 00:16:34;;;;;;;3.00;0.97;;;;;;;;;;4998648;28;20796;-63
2021/05/18 00:19:01;;;;;;;1.33;0.70;;;;;;;;;;4995313;28;20524;-63
2021/05/18 00:21:27;;;;;;;1.60;0.93;;;;;;;;;;5009587;28;20953;-64
2021/05/18 00:23:53;;;;;;;1.60;0.80;;;;;;;;;;5014510;28;20431;-63
2021/05/18 00:26:19;;;;;;;1.73;0.93;;;;;;;;;;5014266;28;20431;-62
2021/05/18 00:28:45;;;;;;;3.37;0.90;;;;;;;;;;5014873;28;20420;-64
2021/05/18 00:31:12;;;;;;;1.50;0.80;;;;;;;;;;5001993;28;20973;-63
2021/05/18 00:33:38;;;;;;;1.80;0.80;;;;;;;;;;4994920;28;20919;-63
2021/05/18 00:36:05;;;;;;;1.50;0.90;;;;;;;;;;4995215;28;20432;-63
2021/05/18 00:38:31;;;;;;;1.50;0.70;;;;;;;;;;4994810;28;20790;-63
2021/05/18 00:40:57;;;;;;;1.70;1.00;;;;;;;;;;5011598;28;20437;-62
2021/05/18 00:43:23;;;;;;;1.23;0.60;;;;;;;;;;5014179;28;20400;-63
2021/05/18 00:45:50;;;;;;;2.90;0.90;;;;;;;;;;5005441;28;20432;-63
2021/05/18 00:48:17;;;;;;;1.30;0.77;;;;;;;;;;5009312;28;20442;-63
2021/05/18 00:50:44;;;;;;;1.40;0.60;;;;;;;;;;5013495;28;20447;-63
2021/05/18 00:53:12;;;;;;;1.80;0.87;;;;;;;;;;5014588;28;20396;-64
2021/05/18 00:55:45;;;;;;;3.83;0.70;;;;;;;;;;5013536;28;20935;-63
2021/05/18 00:58:27;;;;;;;1.60;0.87;;;;;;;;;;5014779;28;20388;-64
2021/05/18 01:01:17;;;;;;;1.30;0.63;;;;;;;;;;5013549;28;20553;-63
2021/05/18 01:03:44;;;;;;;1.23;0.60;;;;;;;;;;5014249;28;20392;-62
2021/05/18 01:06:30;;;;;;;2.43;0.70;;;;;;;;;;5003471;28;20766;-63
2021/05/18 01:08:56;;;;;;;1.43;0.70;;;;;;;;;;4994450;28;20996;-63
2021/05/18 01:11:24;;;;;;;1.50;0.70;;;;;;;;;;5006798;28;20471;-63
2021/05/18 01:13:56;;;;;;;9.87;1.03;;;;;;;;;;5013853;28;20391;-63
2021/05/18 01:16:22;;;;;;;1.20;0.60;;;;;;;;;;5026421;28;20423;-63
2021/05/18 01:18:48;;;;;;;1.40;0.60;;;;;;;;;;5013645;28;20920;-63
2021/05/18 01:21:14;;;;;;;1.60;0.77;;;;;;;;;;5013068;28;20802;-63
2021/05/18 01:23:41;;;;;;;1.60;0.80;;;;;;;;;;5013721;28;20408;-63
2021/05/18 01:26:07;;;;;;;2.43;0.80;;;;;;;;;;5003804;28;20433;-64
2021/05/18 01:28:34;;;;;;;1.83;0.70;;;;;;;;;;4994005;28;20475;-64
2021/05/18 01:31:01;;;;;;;1.70;0.60;;;;;;;;;;5002146;28;20455;-64
2021/05/18 01:33:28;;;;;;;1.70;0.70;;;;;;;;;;5013410;28;20400;-64
2021/05/18 01:35:55;;;;;;;1.33;0.77;;;;;;;;;;5011917;28;20517;-64
2021/05/18 01:38:29;;;;;;;1.30;0.70;;;;;;;;;;5013067;28;20483;-63
2021/05/18 01:43:40;;;;;;;1.80;0.90;;;;;;;;;;5013196;28;20398;-64
2021/05/18 01:46:06;;;;;;;1.30;0.60;;;;;;;;;;5011895;28;20474;-64
2021/05/18 01:48:35;;;;;;;1.60;0.80;;;;;;;;;;5013123;28;20851;-63
2021/05/18 01:51:01;;;;;;;1.30;0.70;;;;;;;;;;5011662;28;20456;-63
2021/05/18 01:53:28;;;;;;;1.30;0.70;;;;;;;;;;5013335;28;20432;-63
2021/05/18 01:58:35;;;;;;;1.50;0.67;;;;;;;;;;5013003;28;20439;-62
2021/05/18 02:01:02;;;;;;;1.53;0.73;;;;;;;;;;5012581;28;20501;-62
2021/05/18 02:03:28;;;;;;;2.27;0.77;;;;;;;;;;5013573;28;20404;-63
2021/05/18 02:05:56;;;;;;;1.63;0.63;;;;;;;;;;5009331;28;20424;-63
2021/05/18 02:08:23;;;;;;;1.40;0.60;;;;;;;;;;5013836;28;20499;-63
2021/05/18 02:10:49;;;;;;;1.30;0.70;;;;;;;;;;5012147;28;20960;-65
2021/05/18 02:13:16;;;;;;;1.40;0.80;;;;;;;;;;4993731;28;20401;-64
2021/05/18 02:20:56;;;;;;;1.30;0.70;;;;;;;;;;4994406;28;20400;-62
2021/05/18 02:26:07;;;;;;;1.37;0.70;;;;;;;;;;5012417;28;20434;-64
2021/05/18 02:28:33;;;;;;;1.90;0.70;;;;;;;;;;5012828;28;20892;-63
2021/05/18 02:30:59;;;;;;;1.40;0.70;;;;;;;;;;5012188;28;20462;-64
2021/05/18 02:33:25;;;;;;;1.70;1.00;;;;;;;;;;5016948;28;20486;-63
2021/05/18 02:35:51;;;;;;;1.50;0.80;;;;;;;;;;5016638;28;20904;-63
2021/05/18 02:38:17;;;;;;;1.60;0.70;;;;;;;;;;5016043;28;20434;-64
2021/05/18 02:40:44;;;;;;;1.80;1.07;;;;;;;;;;5015651;28;20937;-63
2021/05/18 02:43:14;;;;;;;1.60;0.73;;;;;;;;;;5015838;28;20426;-63
2021/05/18 02:45:52;;;;;;;1.67;0.70;;;;;;;;;;5016797;28;20876;-63
2021/05/18 02:51:03;;;;;;;1.50;0.80;;;;;;;;;;5016379;28;20442;-63
2021/05/18 02:53:29;;;;;;;1.50;0.70;;;;;;;;;;5000081;28;20421;-63
2021/05/18 02:58:26;;;;;;;1.70;0.90;;;;;;;;;;5012260;28;20455;-64
2021/05/18 03:00:52;;;;;;;2.37;0.90;;;;;;;;;;5012424;28;20432;-63
2021/05/18 03:03:18;;;;;;;1.30;0.80;;;;;;;;;;5015474;28;20427;-63
2021/05/18 03:05:44;;;;;;;1.37;0.70;;;;;;;;;;5016473;28;20759;-62
2021/05/18 03:08:11;;;;;;;1.60;0.83;;;;;;;;;;5015601;28;20423;-63
2021/05/18 03:10:37;;;;;;;1.40;0.70;;;;;;;;;;5016408;28;20439;-63
2021/05/18 03:13:04;;;;;;;2.43;0.73;;;;;;;;;;5015738;28;20427;-64
2021/05/18 03:15:30;;;;;;;2.90;1.03;;;;;;;;;;5031291;28;20756;-63
2021/05/18 03:17:57;;;;;;;6.20;0.80;;;;;;;;;;5008160;28;20420;-63
2021/05/18 03:20:23;;;;;;;1.50;0.70;;;;;;;;;;4996591;28;20516;-64
2021/05/18 03:22:51;;;;;;;1.50;0.80;;;;;;;;;;5005718;28;20428;-63
2021/05/18 03:25:17;;;;;;;1.50;0.70;;;;;;;;;;5014899;28;20474;-63
2021/05/18 03:27:43;;;;;;;1.97;1.00;;;;;;;;;;5007588;28;20802;-63
2021/05/18 03:35:28;;;;;;;1.60;0.70;;;;;;;;;;5015245;28;20462;-63
2021/05/18 03:37:56;;;;;;;1.40;0.80;;;;;;;;;;5012701;28;20427;-63
2021/05/18 03:40:25;;;;;;;1.73;0.97;;;;;;;;;;5015535;28;20431;-62
2021/05/18 03:43:19;;;;;;;1.30;0.80;;;;;;;;;;5005425;28;20428;-63
2021/05/18 03:45:51;;;;;;;1.47;0.80;;;;;;;;;;4996015;28;20435;-63
2021/05/18 03:53:58;;;;;;;1.80;0.80;;;;;;;;;;5012524;28;20489;-64
2021/05/18 04:04:30;;;;;;;2.20;0.83;;;;;;;;;;4995797;28;20493;-64
2021/05/18 04:17:41;;;;;;;3.73;0.93;;;;;;;;;;5016232;28;20457;-64
2021/05/18 04:52:08;;;;;;;1.30;0.70;;;;;;;;;;4995773;28;20368;-64
2021/05/18 05:00:04;;;;;;;1.70;0.70;;;;;;;;;;4995314;28;20784;-64
2021/05/18 05:10:26;;;;;;;2.47;1.37;;;;;;;;;;5014837;28;20447;-64
2021/05/18 05:15:53;;;;;;;2.80;1.00;;;;;;;;;;4981548;28;20407;-64
2021/05/18 05:18:19;;;;;;;5.73;1.27;;;;;;;;;;5012141;28;20995;-64
2021/05/18 05:20:45;;;;;;;1.83;0.93;;;;;;;;;;5014756;28;20892;-63
2021/05/18 05:23:11;;;;;;;1.40;0.80;;;;;;;;;;5015466;28;20425;-63
2021/05/18 05:25:37;;;;;;;1.30;0.60;;;;;;;;;;5015029;28;20411;-65
2021/05/18 05:28:03;;;;;;;1.50;0.90;;;;;;;;;;5013217;28;20407;-65
2021/05/18 05:30:29;;;;;;;1.30;0.67;;;;;;;;;;4995304;28;20921;-64
2021/05/18 05:32:55;;;;;;;1.40;0.73;;;;;;;;;;4994955;28;20886;-64
2021/05/18 05:35:21;;;;;;;1.63;1.07;;;;;;;;;;4994285;28;20401;-65
2021/05/18 05:37:48;;;;;;;2.13;0.80;;;;;;;;;;4994948;28;20404;-65
2021/05/18 05:40:14;;;;;;;2.83;1.10;;;;;;;;;;5013331;28;20546;-65
2021/05/18 05:42:40;;;;;;;3.33;0.90;;;;;;;;;;5010198;28;20435;-65
2021/05/18 05:45:07;;;;;;;2.30;0.90;;;;;;;;;;4994430;28;20437;-65
2021/05/18 05:47:33;;;;;;;1.50;0.80;;;;;;;;;;4994489;28;20491;-63
2021/05/18 05:50:00;;;;;;;2.33;0.80;;;;;;;;;;5010523;28;20493;-65
2021/05/18 05:52:26;;;;;;;1.50;0.80;;;;;;;;;;5012893;28;20905;-63
2021/05/18 05:54:52;;;;;;;2.23;0.80;;;;;;;;;;4997895;28;20439;-64
2021/05/18 05:57:18;;;;;;;1.83;0.87;;;;;;;;;;4994082;28;20408;-63
2021/05/18 05:59:45;;;;;;;2.17;0.70;;;;;;;;;;5007866;28;20997;-64
2021/05/18 06:02:11;;;;;;;2.93;1.70;;;;;;;;;;5013758;28;20821;-64
2021/05/18 06:04:37;;;;;;;1.30;0.70;;;;;;;;;;5000407;28;20447;-64
2021/05/18 06:07:03;;;;;;;2.70;0.77;;;;;;;;;;4993355;28;20415;-64
2021/05/18 06:09:31;;;;;;;1.93;0.90;;;;;;;;;;4994177;28;20468;-64
2021/05/18 06:42:05;;;;;;;2.30;0.70;;;;;;;;;;4993712;28;20905;-64
2021/05/18 06:47:35;;;;;;;1.97;0.80;;;;;;;;;;5013241;28;20827;-64
2021/05/18 06:52:42;;;;;;;1.50;0.70;;;;;;;;;;4994160;28;20396;-64
2021/05/18 06:55:12;;;;;;;1.30;0.70;;;;;;;;;;5008761;28;20431;-64
2021/05/18 06:57:41;;;;;;;2.83;0.90;;;;;;;;;;5012430;28;20981;-64
2021/05/18 07:00:11;;;;;;;1.30;0.70;;;;;;;;;;5002252;28;20474;-64
2021/05/18 07:02:39;;;;;;;2.03;1.00;;;;;;;;;;5013891;28;20423;-64
2021/05/18 07:05:12;;;;;;;1.40;0.80;;;;;;;;;;5014001;28;20415;-64
2021/05/18 07:07:38;;;;;;;1.80;1.00;;;;;;;;;;5011134;28;20427;-64
2021/05/18 07:10:05;;;;;;;2.00;0.80;;;;;;;;;;5012169;28;20474;-65
2021/05/18 07:12:31;;;;;;;1.67;0.73;;;;;;;;;;5012872;28;20454;-65
2021/05/18 07:14:59;;;;;;;1.60;0.90;;;;;;;;;;5011251;28;20431;-64
2021/05/18 07:17:25;;;;;;;1.50;0.80;;;;;;;;;;5011814;28;20873;-64
2021/05/18 07:19:51;;;;;;;2.07;1.10;;;;;;;;;;5015198;28;20951;-64
2021/05/18 07:22:18;;;;;;;2.43;1.40;;;;;;;;;;5010419;28;21130;-64
2021/05/18 07:24:44;;;;;;;4.03;1.00;;;;;;;;;;5014697;28;20432;-64
2021/05/18 07:27:10;;;;;;;2.47;0.97;;;;;;;;;;5015818;28;20416;-64
2021/05/18 07:29:36;;;;;;;1.63;0.80;;;;;;;;;;5014792;28;20463;-64
2021/05/18 07:32:02;;;;;;;2.80;0.97;;;;;;;;;;5015875;28;20428;-64
2021/05/18 07:34:29;;;;;;;2.00;0.73;;;;;;;;;;5005005;28;20448;-64
2021/05/18 07:36:55;;;;;;;1.40;0.80;;;;;;;;;;5004062;28;20415;-63
2021/05/18 07:39:21;;;;;;;2.00;1.17;;;;;;;;;;5015210;28;20443;-64
2021/05/18 07:41:47;;;;;;;1.40;0.80;;;;;;;;;;5010547;28;21793;-64
2021/05/18 07:44:13;;;;;;;1.50;0.80;;;;;;;;;;5012544;28;20462;-64
2021/05/18 07:46:41;;;;;;;1.77;0.80;;;;;;;;;;5013833;28;20549;-64
2021/05/18 07:49:30;;;;;;;1.77;0.90;;;;;;;;;;5013503;28;20463;-64
2021/05/18 07:59:59;;;;;;;1.30;0.70;;;;;;;;;;5014891;28;20609;-64
2021/05/18 08:05:17;;;;;;;1.63;0.80;;;;;;;;;;5014087;28;20899;-63
2021/05/18 08:05:18;;;;;;;2.13;0.90;;;;;;;;;;5009798;28;20427;-63
2021/05/18 08:07:44;;;;;;;1.50;0.70;;;;;;;;;;5014018;28;20765;-64
2021/05/18 08:10:13;;;;;;;1.30;0.70;;;;;;;;;;5012154;28;20557;-65
2021/05/18 08:12:39;;;;;;;1.83;0.90;;;;;;;;;;5014815;28;20846;-64
2021/05/18 08:18:08;;;;;;;1.60;0.70;;;;;;;;;;5014959;28;20499;-65
2021/05/18 09:36:55;;;;;;;1.63;0.80;;;;;;;;;;5006539;28;20822;-63
2021/05/18 10:15:00;;;;;;;1.50;0.80;;;;;;;;;;5010351;28;20486;-63
2021/05/18 10:36:39;;;;;;;1.97;0.80;;;;;;;;;;5010666;28;20424;-64
2021/05/18 10:39:26;;;;;;;1.53;0.70;;;;;;;;;;5012632;28;21232;-64
2021/05/18 10:41:53;;;;;;;1.73;0.90;;;;;;;;;;5011131;28;20504;-64
2021/05/18 10:44:19;;;;;;;1.37;0.80;;;;;;;;;;5012244;28;20502;-64
2021/05/18 10:46:56;;;;;;;2.00;0.80;;;;;;;;;;5011605;28;20431;-64
2021/05/18 10:49:42;;;;;;;1.50;0.80;;;;;;;;;;5008216;28;20498;-64
2021/05/18 10:52:09;;;;;;;1.73;0.80;;;;;;;;;;4997756;28;20472;-64
2021/05/18 10:54:42;;;;;;;1.80;0.70;;;;;;;;;;5014813;28;20419;-64
2021/05/18 10:57:09;;;;;;;1.30;0.60;;;;;;;;;;5015629;28;20412;-64
2021/05/18 10:59:36;;;;;;;1.43;0.80;;;;;;;;;;5016266;28;20461;-64
2021/05/18 11:02:09;;;;;;;1.50;0.80;;;;;;;;;;5013822;28;20909;-63
2021/05/18 11:04:55;;;;;;;1.90;0.80;;;;;;;;;;5013243;28;20885;-63
2021/05/18 11:07:22;;;;;;;1.60;0.80;;;;;;;;;;5014638;28;20418;-63
2021/05/18 11:09:49;;;;;;;1.60;0.90;;;;;;;;;;5002434;28;20546;-65
2021/05/18 11:12:19;;;;;;;1.40;0.80;;;;;;;;;;5007411;28;20454;-65
2021/05/18 11:14:57;;;;;;;1.70;0.80;;;;;;;;;;5012609;28;20912;-67
2021/05/18 11:17:25;;;;;;;3.07;0.87;;;;;;;;;;5014730;28;20411;-65
2021/05/18 11:20:08;;;;;;;1.30;0.70;;;;;;;;;;5012337;28;20445;-66
2021/05/18 11:25:30;;;;;;;2.90;0.90;;;;;;;;;;5013784;28;20450;-64
2021/05/18 11:28:06;;;;;;;1.30;0.60;;;;;;;;;;5014415;28;20477;-64
2021/05/18 11:30:32;;;;;;;1.80;0.80;;;;;;;;;;5020573;28;20505;-63
2021/05/18 11:32:58;;;;;;;1.30;0.70;;;;;;;;;;5028939;28;20403;-64
2021/05/18 11:35:25;;;;;;;1.67;0.90;;;;;;;;;;5012424;28;20562;-64
2021/05/18 11:38:05;;;;;;;1.40;0.73;;;;;;;;;;5013947;28;20454;-64
2021/05/18 11:40:38;;;;;;;2.27;0.80;;;;;;;;;;5013837;28;20462;-64
2021/05/18 11:43:15;;;;;;;1.50;0.80;;;;;;;;;;5012369;28;20427;-64
2021/05/18 11:45:41;;;;;;;1.70;0.70;;;;;;;;;;5013438;28;20491;-63
2021/05/18 11:48:13;;;;;;;1.50;0.70;;;;;;;;;;5013987;28;20777;-65
2021/05/18 11:50:40;;;;;;;1.50;0.80;;;;;;;;;;5013444;28;20463;-66
2021/05/18 11:53:06;;;;;;;1.50;0.80;;;;;;;;;;5013734;28;20449;-65
2021/05/18 11:55:33;;;;;;;1.97;0.90;;;;;;;;;;5027589;28;20956;-66
2021/05/18 11:58:00;;;;;;;1.80;0.70;;;;;;;;;;5012288;28;20435;-66
2021/05/18 12:00:33;;;;;;;4.10;1.37;;;;;;;;;;5014506;28;20431;-66
2021/05/18 12:03:00;;;;;;;1.57;0.90;;;;;;;;;;5012979;28;20526;-65
2021/05/18 12:05:26;;;;;;;1.60;0.70;;;;;;;;;;5011243;28;20435;-64
2021/05/18 12:07:53;;;;;;;1.60;0.73;;;;;;;;;;5012557;28;20787;-64
2021/05/18 12:10:32;;;;;;;1.30;0.70;;;;;;;;;;5014506;28;20546;-65
2021/05/18 12:12:58;;;;;;;1.50;0.70;;;;;;;;;;4999665;28;20917;-64
2021/05/18 12:15:24;;;;;;;2.60;0.90;;;;;;;;;;5010236;28;20416;-64
2021/05/18 12:17:54;;;;;;;1.70;0.80;;;;;;;;;;5013425;28;20428;-63
2021/05/18 12:20:21;;;;;;;2.23;0.80;;;;;;;;;;5014750;28;20913;-64
2021/05/18 12:22:49;;;;;;;1.70;1.00;;;;;;;;;;5013574;28;20424;-64
2021/05/18 12:25:31;;;;;;;1.73;0.80;;;;;;;;;;5014174;28;20424;-64
2021/05/18 12:28:05;;;;;;;1.60;0.70;;;;;;;;;;5004154;28;20454;-63
2021/05/18 12:30:35;;;;;;;2.77;0.90;;;;;;;;;;5020034;28;20459;-63
2021/05/18 12:33:01;;;;;;;1.50;0.80;;;;;;;;;;5012276;28;20416;-63
2021/05/18 12:35:27;;;;;;;1.50;0.90;;;;;;;;;;5009328;28;20442;-63
2021/05/18 12:37:55;;;;;;;4.33;0.87;;;;;;;;;;5011025;28;20431;-65
2021/05/18 12:40:27;;;;;;;2.00;0.60;;;;;;;;;;5013525;28;20567;-65
2021/05/18 12:42:53;;;;;;;1.40;0.80;;;;;;;;;;5006517;28;20932;-65
2021/05/18 12:45:21;;;;;;;2.63;0.80;;;;;;;;;;5012304;28;20427;-65
2021/05/18 12:47:58;;;;;;;1.40;0.70;;;;;;;;;;5009085;28;20424;-65
2021/05/18 12:50:34;;;;;;;1.60;0.80;;;;;;;;;;5014073;28;20451;-64
2021/05/18 12:53:00;;;;;;;1.40;0.70;;;;;;;;;;5013063;28;20427;-65
2021/05/18 12:55:30;;;;;;;2.00;0.90;;;;;;;;;;5013114;28;20411;-65
2021/05/18 12:58:06;;;;;;;1.70;0.73;;;;;;;;;;5011683;28;20788;-64
2021/05/18 13:00:39;;;;;;;1.30;0.60;;;;;;;;;;5011182;28;20440;-65
2021/05/18 13:03:10;;;;;;;1.40;0.80;;;;;;;;;;5012345;28;20467;-65
2021/05/18 13:05:36;;;;;;;2.77;0.80;;;;;;;;;;5013924;28;20415;-65
2021/05/18 13:08:07;;;;;;;1.70;0.77;;;;;;;;;;5012370;28;20435;-65
2021/05/18 13:10:39;;;;;;;2.07;1.00;;;;;;;;;;5013052;28;20539;-65
2021/05/18 13:13:06;;;;;;;1.50;0.80;;;;;;;;;;5008826;28;20439;-65
2021/05/18 13:15:32;;;;;;;3.37;0.83;;;;;;;;;;5012320;28;20867;-67
2021/05/18 13:18:03;;;;;;;1.47;0.80;;;;;;;;;;5011312;28;20459;-64
2021/05/18 13:20:39;;;;;;;1.57;0.80;;;;;;;;;;5012989;28;20442;-64
2021/05/18 13:23:08;;;;;;;2.40;0.87;;;;;;;;;;5012102;28;20427;-66
2021/05/18 13:28:20;;;;;;;3.50;1.20;;;;;;;;;;5010758;28;20502;-63
2021/05/18 13:30:46;;;;;;;1.40;0.80;;;;;;;;;;5010983;28;20806;-64
2021/05/18 13:33:12;;;;;;;1.60;1.00;;;;;;;;;;5012234;28;20423;-63
2021/05/18 13:35:39;;;;;;;1.40;0.70;;;;;;;;;;5012306;28;20498;-63
2021/05/18 13:38:05;;;;;;;1.63;0.90;;;;;;;;;;5007514;28;20463;-65
2021/05/18 13:40:31;;;;;;;1.40;0.70;;;;;;;;;;5012143;28;20869;-64
2021/05/18 13:42:57;;;;;;;1.50;0.77;;;;;;;;;;5010401;28;20466;-63
2021/05/18 13:45:25;;;;;;;1.40;0.70;;;;;;;;;;5013186;28;20498;-64
2021/05/18 13:47:54;;;;;;;1.60;0.80;;;;;;;;;;5011662;28;20438;-65
2021/05/18 13:50:21;;;;;;;1.60;0.80;;;;;;;;;;5011392;28;20542;-67
2021/05/18 13:52:47;;;;;;;3.00;0.90;;;;;;;;;;5011214;28;20427;-64
2021/05/18 13:55:13;;;;;;;2.20;1.00;;;;;;;;;;5011565;28;20775;-65
2021/05/18 13:57:39;;;;;;;1.60;0.90;;;;;;;;;;5011879;28;20435;-63
2021/05/18 14:00:08;;;;;;;1.53;0.73;;;;;;;;;;5011282;28;20440;-64
2021/05/18 14:02:36;;;;;;;2.87;0.93;;;;;;;;;;5011889;28;20467;-64
2021/05/18 14:05:02;;;;;;;2.27;1.03;;;;;;;;;;5012304;28;20412;-65
2021/05/18 14:07:52;;;;;;;1.93;0.80;;;;;;;;;;5025408;28;20420;-65
2021/05/18 14:10:18;;;;;;;1.90;0.70;;;;;;;;;;5004016;28;20968;-64
2021/05/18 14:12:44;;;;;;;1.80;1.00;;;;;;;;;;5011057;28;20438;-65
2021/05/18 14:15:11;;;;;;;2.03;0.60;;;;;;;;;;5011544;28;20428;-63
2021/05/18 14:17:37;;;;;;;1.60;1.00;;;;;;;;;;5011542;28;20429;-64
2021/05/18 14:20:05;;;;;;;1.97;0.93;;;;;;;;;;5011972;28;20439;-65
2021/05/18 14:22:31;;;;;;;2.00;0.73;;;;;;;;;;5010998;28;20416;-65
2021/05/18 14:25:05;;;;;;;1.60;0.80;;;;;;;;;;5011335;28;20459;-63
2021/05/18 14:27:34;;;;;;;2.70;0.97;;;;;;;;;;5012460;28;20545;-65
2021/05/18 14:30:00;;;;;;;1.87;0.80;;;;;;;;;;5015971;28;20811;-65
2021/05/18 14:32:26;;;;;;;1.90;0.90;;;;;;;;;;5015034;28;20412;-65
2021/05/18 14:34:53;;;;;;;1.60;0.70;;;;;;;;;;5016588;28;20404;-64
2021/05/18 14:37:20;;;;;;;3.50;0.97;;;;;;;;;;5013599;28;20408;-64
2021/05/18 14:45:06;;;;;;;1.60;0.87;;;;;;;;;;5015556;28;20430;-63
2021/05/18 14:47:42;;;;;;;2.47;0.80;;;;;;;;;;5014583;28;20416;-63
2021/05/18 14:55:38;;;;;;;1.87;0.80;;;;;;;;;;5016134;28;20430;-65
2021/05/18 14:58:04;;;;;;;2.40;0.90;;;;;;;;;;5014711;28;20423;-66
2021/05/18 15:00:30;;;;;;;2.90;1.03;;;;;;;;;;5013926;28;20431;-65
2021/05/18 15:02:56;;;;;;;4.70;0.90;;;;;;;;;;5015152;28;20431;-64
2021/05/18 15:05:24;;;;;;;2.07;0.80;;;;;;;;;;5015749;28;20411;-65
2021/05/18 15:07:50;;;;;;;1.60;0.80;;;;;;;;;;5015118;28;20442;-63
2021/05/18 15:10:17;;;;;;;1.47;0.80;;;;;;;;;;5015813;28;20517;-63
2021/05/18 15:12:43;;;;;;;1.50;0.80;;;;;;;;;;5012064;28;20511;-64
2021/05/18 15:15:09;;;;;;;1.30;0.60;;;;;;;;;;5015010;28;20427;-64
2021/05/18 15:17:35;;;;;;;1.90;0.90;;;;;;;;;;5015433;28;20519;-64
2021/05/18 15:20:01;;;;;;;2.80;0.70;;;;;;;;;;5015341;28;20474;-64
2021/05/18 15:22:30;;;;;;;2.07;0.90;;;;;;;;;;5015297;28;20437;-64
2021/05/18 15:24:57;;;;;;;1.40;0.70;;;;;;;;;;5014583;28;20411;-64
2021/05/18 15:27:25;;;;;;;3.10;1.03;;;;;;;;;;5014796;28;20435;-63
2021/05/18 15:29:51;;;;;;;2.17;0.80;;;;;;;;;;5015255;28;20459;-63
2021/05/18 15:32:17;;;;;;;1.47;0.77;;;;;;;;;;5016330;28;20418;-64
2021/05/18 15:34:43;;;;;;;4.10;0.70;;;;;;;;;;5011658;28;20450;-63
2021/05/18 15:37:10;;;;;;;2.57;0.80;;;;;;;;;;5014749;28;20419;-62
2021/05/18 15:39:36;;;;;;;1.50;0.70;;;;;;;;;;5008303;28;20451;-63
2021/05/18 15:42:02;;;;;;;2.10;0.80;;;;;;;;;;5007298;28;20424;-63
2021/05/18 15:44:28;;;;;;;1.90;0.80;;;;;;;;;;5005333;28;20417;-63
2021/05/18 15:46:54;;;;;;;1.60;0.80;;;;;;;;;;5007935;28;20924;-64
2021/05/18 15:49:21;;;;;;;1.47;0.70;;;;;;;;;;5009167;28;20490;-64
2021/05/18 15:51:47;;;;;;;1.57;0.77;;;;;;;;;;5004230;28;20452;-63
2021/05/18 15:54:13;;;;;;;2.30;1.97;;;;;;;;;;5010581;28;20420;-64
2021/05/18 15:56:39;;;;;;;1.47;0.60;;;;;;;;;;5013575;28;20866;-63
2021/05/18 15:59:05;;;;;;;1.40;0.70;;;;;;;;;;5014283;28;20956;-64
2021/05/18 16:01:31;;;;;;;1.50;0.70;;;;;;;;;;5015003;28;20481;-64
2021/05/18 16:03:57;;;;;;;1.63;0.70;;;;;;;;;;5013992;28;20876;-64
2021/05/18 16:06:23;;;;;;;3.40;0.70;;;;;;;;;;5015431;28;20443;-64
2021/05/18 16:11:15;;;;;;;2.57;1.00;;;;;;;;;;5013521;28;20447;-63
2021/05/18 16:13:42;;;;;;;1.30;0.60;;;;;;;;;;5013628;28;20428;-64
2021/05/18 16:16:09;;;;;;;1.70;0.77;;;;;;;;;;5029161;28;20420;-64
2021/05/18 16:18:35;;;;;;;1.70;0.70;;;;;;;;;;5013642;28;20931;-64
2021/05/18 16:21:02;;;;;;;1.60;0.60;;;;;;;;;;5013785;28;20905;-64
2021/05/18 16:23:28;;;;;;;1.80;0.90;;;;;;;;;;5013894;28;20434;-64
2021/05/18 16:25:55;;;;;;;1.40;0.60;;;;;;;;;;5013923;28;20434;-65
2021/05/18 16:28:21;;;;;;;2.80;0.80;;;;;;;;;;5012314;28;20511;-64
2021/05/18 16:30:49;;;;;;;2.33;0.77;;;;;;;;;;5013813;28;20918;-64
2021/05/18 16:33:15;;;;;;;1.30;0.60;;;;;;;;;;5013576;28;20798;-63
2021/05/18 16:35:41;;;;;;;1.50;0.60;;;;;;;;;;5013285;28;20416;-64
2021/05/18 16:38:07;;;;;;;1.60;0.77;;;;;;;;;;5010650;28;20427;-64
2021/05/18 16:40:33;;;;;;;1.63;0.80;;;;;;;;;;5013420;28;20423;-64
2021/05/18 16:43:00;;;;;;;1.97;0.70;;;;;;;;;;5012490;28;20884;-63
2021/05/18 16:45:26;;;;;;;2.00;0.80;;;;;;;;;;5014582;28;20495;-64
2021/05/18 16:47:52;;;;;;;2.53;0.93;;;;;;;;;;5014270;28;20450;-64
2021/05/18 16:50:19;;;;;;;1.77;0.70;;;;;;;;;;4994980;28;20511;-66
2021/05/18 16:52:45;;;;;;;2.13;0.90;;;;;;;;;;4994929;28;20412;-64
2021/05/18 16:55:12;;;;;;;1.83;1.10;;;;;;;;;;5011500;28;20470;-64
2021/05/18 16:57:38;;;;;;;1.60;0.90;;;;;;;;;;5014396;28;20513;-64
2021/05/18 17:00:06;;;;;;;4.37;0.90;;;;;;;;;;5035333;23;20495;-83
2021/05/18 17:02:33;;;;;;;2.77;1.30;;;;;;;;;;5039310;28;20518;-83
2021/05/18 17:04:59;;;;;;;2.07;0.87;;;;;;;;;;5037990;28;20426;-83
2021/05/18 17:07:25;;;;;;;1.60;0.73;;;;;;;;;;5040012;28;20883;-82
2021/05/18 17:09:51;;;;;;;2.60;1.00;;;;;;;;;;5037539;28;20484;-83
2021/05/18 17:12:21;;;;;;;2.23;0.80;;;;;;;;;;5044189;28;20549;-81
2021/05/18 17:14:48;;;;;;;1.50;0.80;;;;;;;;;;5075757;22;20536;-64
2021/05/18 17:17:15;;;;;;;1.40;0.73;;;;;;;;;;5029130;28;20403;-65
2021/05/18 17:19:42;;;;;;;2.17;1.00;;;;;;;;;;5032402;28;20568;-65
2021/05/18 17:22:09;;;;;;;2.20;0.97;;;;;;;;;;5032986;28;20387;-64
2021/05/18 17:24:35;;;;;;;2.07;1.30;;;;;;;;;;5019776;28;20447;-63
2021/05/18 17:27:02;;;;;;;1.80;0.80;;;;;;;;;;5014084;28;20964;-63
2021/05/18 17:29:28;;;;;;;1.60;0.90;;;;;;;;;;5024868;28;20437;-64
2021/05/18 17:31:55;;;;;;;2.10;0.80;;;;;;;;;;5033093;28;20934;-64
2021/05/18 17:34:22;;;;;;;2.10;1.20;;;;;;;;;;5030936;28;20427;-64
2021/05/18 17:36:49;;;;;;;2.40;1.07;;;;;;;;;;5033236;28;20395;-64
2021/05/18 17:39:15;;;;;;;2.60;1.03;;;;;;;;;;5022994;28;20974;-64
2021/05/18 17:41:42;;;;;;;3.27;1.13;;;;;;;;;;5013204;28;20795;-64
2021/05/18 17:44:08;;;;;;;2.13;0.70;;;;;;;;;;5020963;28;20981;-63
2021/05/18 17:46:36;;;;;;;2.73;0.83;;;;;;;;;;5033152;28;20483;-63
2021/05/18 17:49:02;;;;;;;3.03;1.10;;;;;;;;;;5025354;28;20915;-65
2021/05/18 17:51:28;;;;;;;2.80;0.93;;;;;;;;;;5013126;28;20827;-63
2021/05/18 17:53:54;;;;;;;2.10;1.13;;;;;;;;;;5023436;28;20773;-63
2021/05/18 17:56:21;;;;;;;1.87;1.07;;;;;;;;;;5032491;28;20395;-64
2021/05/18 17:58:47;;;;;;;2.17;1.13;;;;;;;;;;5031581;28;20552;-64
2021/05/18 18:01:13;;;;;;;2.47;1.03;;;;;;;;;;5032039;28;20423;-64
2021/05/18 18:03:39;;;;;;;3.20;1.20;;;;;;;;;;5026282;28;20985;-65
2021/05/18 18:06:05;;;;;;;4.13;1.33;;;;;;;;;;5032470;28;20403;-65
2021/05/18 18:08:37;;;;;;;1.80;0.87;;;;;;;;;;5031765;28;20435;-65
2021/05/18 18:11:03;;;;;;;1.97;1.10;;;;;;;;;;5032504;28;20541;-64
2021/05/18 18:13:29;;;;;;;1.60;0.97;;;;;;;;;;5031268;28;20397;-68
2021/05/18 18:15:55;;;;;;;2.63;1.27;;;;;;;;;;5032326;28;20410;-64
2021/05/18 18:18:21;;;;;;;1.70;0.70;;;;;;;;;;5031769;28;20391;-68
2021/05/18 18:20:47;;;;;;;2.30;1.20;;;;;;;;;;5032280;28;20415;-63
2021/05/18 18:23:14;;;;;;;1.90;0.97;;;;;;;;;;5032279;28;20397;-63
2021/05/18 18:25:40;;;;;;;3.43;1.07;;;;;;;;;;5032039;28;20840;-65
2021/05/18 18:28:06;;;;;;;1.70;1.00;;;;;;;;;;5032430;28;20466;-63
2021/05/18 18:30:32;;;;;;;1.63;1.10;;;;;;;;;;5031465;28;20879;-64
2021/05/18 18:32:58;;;;;;;1.90;1.10;;;;;;;;;;5032294;28;20902;-65
2021/05/18 18:35:24;;;;;;;2.20;1.00;;;;;;;;;;5029881;28;20887;-65
2021/05/18 18:37:51;;;;;;;2.30;1.30;;;;;;;;;;5011396;28;20450;-65
2021/05/18 18:40:17;;;;;;;3.30;1.40;;;;;;;;;;5011559;28;20468;-62
2021/05/18 18:42:43;;;;;;;2.10;1.00;;;;;;;;;;5012725;28;20404;-63
2021/05/18 18:45:11;;;;;;;2.23;1.27;;;;;;;;;;5024627;28;20419;-63
2021/05/18 18:47:38;;;;;;;1.60;0.90;;;;;;;;;;5032254;28;20442;-63
2021/05/18 18:50:07;;;;;;;4.17;1.53;;;;;;;;;;5029704;28;20465;-62
2021/05/18 18:55:09;;;;;;;2.13;1.37;;;;;;;;;;5031978;28;20426;-64
2021/05/18 18:57:35;;;;;;;1.80;0.90;;;;;;;;;;5031830;28;20422;-63
2021/05/18 19:00:01;;;;;;;2.83;1.10;;;;;;;;;;5015875;28;20447;-63
2021/05/18 19:02:36;;;;;;;2.90;1.30;;;;;;;;;;5012666;28;20912;-63
2021/05/18 19:05:13;;;;;;;2.00;1.17;;;;;;;;;;5022876;28;20802;-64
2021/05/18 19:07:47;;;;;;;2.33;1.17;;;;;;;;;;5032562;28;20399;-64
2021/05/18 19:10:31;;;;;;;2.37;1.10;;;;;;;;;;5031491;28;20469;-64
2021/05/18 19:12:57;;;;;;;3.67;1.17;;;;;;;;;;5033414;28;20384;-64
2021/05/18 19:15:23;;;;;;;2.30;1.37;;;;;;;;;;5034549;28;20549;-64
2021/05/18 19:17:50;;;;;;;1.90;1.10;;;;;;;;;;5035807;28;20398;-63
2021/05/18 19:20:17;;;;;;;4.33;1.30;;;;;;;;;;5032181;28;20969;-62
2021/05/18 19:22:43;;;;;;;2.23;1.60;;;;;;;;;;5035900;28;20407;-64
2021/05/18 19:25:10;;;;;;;4.00;1.57;;;;;;;;;;5035053;28;20933;-64
2021/05/18 19:27:42;;;;;;;4.17;1.30;;;;;;;;;;5035931;28;20786;-64
2021/05/18 19:30:10;;;;;;;2.70;1.27;;;;;;;;;;5034395;28;20462;-63
2021/05/18 19:32:36;;;;;;;2.23;1.30;;;;;;;;;;5034479;28;20418;-64
2021/05/18 19:35:04;;;;;;;2.90;1.53;;;;;;;;;;5034987;28;20465;-64
2021/05/18 19:43:03;;;;;;;5.00;1.70;;;;;;;;;;5023155;28;20437;-64
2021/05/18 19:48:10;;;;;;;3.30;1.60;;;;;;;;;;5035888;28;20379;-63
2021/05/18 19:50:36;;;;;;;2.30;1.30;;;;;;;;;;5034335;28;20458;-64
2021/05/18 19:53:05;;;;;;;3.23;1.00;;;;;;;;;;5035280;28;20898;-64
2021/05/18 19:56:18;;;;;;;2.20;1.53;;;;;;;;;;5033480;28;20429;-64